Time;durP1;ratioP1;P1;durP2;ratioP2;P2;SDS_P1;SDS_P2;PMS_P1;PMS_P2;Temp;Humidity;BMP_temperature;BMP_pressure;BME280_temperature;BME280_humidity;BME280_pressure;Samples;Min_cycle;Max_cycle;Signal;HPM_P1;HPM_P2
2022/03/11 00:01:59;;;;;;;2.03;1.77;;;12.10;51.30;;;;;;5080667;28;20500;-64
2022/03/11 00:04:42;;;;;;;1.50;1.40;;;12.00;50.00;;;;;;5080719;28;20489;-64
2022/03/11 00:07:13;;;;;;;2.00;1.90;;;11.90;54.20;;;;;;5084371;28;20447;-64
2022/03/11 00:09:43;;;;;;;1.90;1.47;;;11.90;54.50;;;;;;5073221;28;20484;-64
2022/03/11 00:12:14;;;;;;;2.40;2.20;;;12.00;55.80;;;;;;5065036;28;20455;-64
2022/03/11 00:14:45;;;;;;;1.50;1.40;;;12.00;56.50;;;;;;5066114;28;20479;-65
2022/03/11 00:17:18;;;;;;;2.00;1.80;;;11.90;58.00;;;;;;5080488;28;20466;-64
2022/03/11 00:19:51;;;;;;;1.70;1.60;;;11.80;55.50;;;;;;5086131;28;20443;-64
2022/03/11 00:22:23;;;;;;;2.13;1.50;;;11.90;54.30;;;;;;5063316;28;20527;-64
2022/03/11 00:24:55;;;;;;;2.53;1.70;;;11.80;54.10;;;;;;5066171;28;20922;-64
2022/03/11 00:27:29;;;;;;;1.50;1.40;;;11.80;53.70;;;;;;5079871;28;20570;-63
2022/03/11 00:30:00;;;;;;;1.47;1.37;;;11.80;52.90;;;;;;5085898;28;20520;-63
2022/03/11 00:32:31;;;;;;;1.47;1.37;;;11.70;52.30;;;;;;5084404;28;20436;-64
2022/03/11 00:35:04;;;;;;;1.00;1.00;;;11.70;56.20;;;;;;5072054;28;20479;-64
2022/03/11 00:37:35;;;;;;;1.50;1.40;;;11.80;52.90;;;;;;5065494;28;20467;-63
2022/03/11 00:40:08;;;;;;;1.70;1.47;;;11.80;51.50;;;;;;5065658;28;21258;-64
2022/03/11 00:42:39;;;;;;;2.70;1.90;;;11.70;53.10;;;;;;5071950;28;20535;-64
2022/03/11 00:45:10;;;;;;;1.53;1.43;;;11.80;55.40;;;;;;5063122;28;20472;-64
2022/03/11 00:47:41;;;;;;;2.83;1.33;;;11.70;55.70;;;;;;5075779;28;20538;-64
2022/03/11 00:50:15;;;;;;;1.70;1.60;;;11.60;56.60;;;;;;5064853;28;20488;-64
2022/03/11 00:52:46;;;;;;;1.97;1.77;;;11.60;57.00;;;;;;5063667;28;20771;-63
2022/03/11 00:55:17;;;;;;;1.70;1.60;;;11.70;55.30;;;;;;5064195;28;20470;-64
2022/03/11 00:57:48;;;;;;;1.40;1.30;;;11.70;56.70;;;;;;5063612;28;20448;-66
2022/03/11 01:00:19;;;;;;;1.50;1.40;;;11.60;55.30;;;;;;5061016;28;20449;-64
2022/03/11 01:02:50;;;;;;;1.90;1.80;;;11.50;56.90;;;;;;5064771;28;20508;-63
2022/03/11 01:05:23;;;;;;;1.10;1.10;;;11.40;54.40;;;;;;5068412;28;20448;-64
2022/03/11 01:07:56;;;;;;;4.37;2.90;;;11.40;55.70;;;;;;5051550;28;20484;-64
2022/03/11 01:10:27;;;;;;;2.73;2.03;;;11.30;56.30;;;;;;5064283;28;20548;-64
2022/03/11 01:12:58;;;;;;;1.60;1.50;;;11.40;53.90;;;;;;5063913;28;20516;-64
2022/03/11 01:15:29;;;;;;;1.67;1.53;;;11.30;55.00;;;;;;5067570;28;20472;-64
2022/03/11 01:18:01;;;;;;;1.50;1.40;;;11.20;55.90;;;;;;5066616;28;20447;-65
2022/03/11 01:20:35;;;;;;;3.30;1.33;;;11.30;54.00;;;;;;5064753;28;20540;-63
2022/03/11 01:23:06;;;;;;;1.73;1.63;;;11.30;55.50;;;;;;5061350;28;20463;-65
2022/03/11 01:25:37;;;;;;;1.93;1.80;;;11.20;54.80;;;;;;5059778;28;20453;-64
2022/03/11 01:28:08;;;;;;;2.07;1.80;;;11.30;54.90;;;;;;5073099;28;20480;-64
2022/03/11 01:30:39;;;;;;;1.87;1.67;;;11.30;54.40;;;;;;5063592;28;20464;-65
2022/03/11 01:33:10;;;;;;;1.67;1.23;;;11.30;53.20;;;;;;5065314;28;20437;-64
2022/03/11 01:35:42;;;;;;;1.30;1.20;;;11.20;53.00;;;;;;5064242;28;20452;-63
2022/03/11 01:38:13;;;;;;;2.50;2.17;;;11.10;53.70;;;;;;5054077;28;20924;-64
2022/03/11 01:40:44;;;;;;;1.40;1.30;;;11.00;55.40;;;;;;5062969;28;20456;-63
2022/03/11 01:43:16;;;;;;;1.60;1.50;;;10.80;54.50;;;;;;5062436;28;20561;-63
2022/03/11 01:45:47;;;;;;;1.97;1.60;;;10.70;57.20;;;;;;5068515;28;21019;-63
2022/03/11 01:48:18;;;;;;;1.40;1.30;;;10.70;57.50;;;;;;5064263;28;20433;-63
2022/03/11 01:50:54;;;;;;;1.73;1.50;;;10.50;57.00;;;;;;5059903;28;20516;-63
2022/03/11 01:53:28;;;;;;;1.70;1.60;;;10.50;56.00;;;;;;5064271;28;20472;-63
2022/03/11 01:55:59;;;;;;;2.03;1.83;;;10.40;57.70;;;;;;5066737;28;20448;-64
2022/03/11 01:58:32;;;;;;;2.17;1.73;;;10.30;56.80;;;;;;5063172;28;20451;-62
2022/03/11 02:01:04;;;;;;;2.23;2.03;;;10.30;61.00;;;;;;5058354;28;20479;-64
2022/03/11 02:03:35;;;;;;;2.00;1.40;;;10.30;58.40;;;;;;5051104;28;20457;-63
2022/03/11 02:06:11;;;;;;;1.50;1.37;;;10.30;63.80;;;;;;5058635;28;20476;-64
2022/03/11 02:08:42;;;;;;;3.83;2.13;;;10.30;68.50;;;;;;5063105;28;20449;-66
2022/03/11 02:11:13;;;;;;;2.30;1.80;;;10.20;60.80;;;;;;5060629;28;20480;-62
2022/03/11 02:13:46;;;;;;;1.97;1.87;;;10.10;65.00;;;;;;5051248;28;20819;-64
2022/03/11 02:16:18;;;;;;;2.07;1.70;;;9.90;71.80;;;;;;5051596;28;20488;-65
2022/03/11 02:18:49;;;;;;;2.10;1.63;;;9.80;74.20;;;;;;5063624;28;20437;-62
2022/03/11 02:21:23;;;;;;;1.63;1.53;;;9.80;71.70;;;;;;5064071;28;20453;-64
2022/03/11 02:23:56;;;;;;;1.83;1.67;;;9.70;75.30;;;;;;5062501;28;20448;-62
2022/03/11 02:26:29;;;;;;;1.70;1.60;;;9.70;76.70;;;;;;5071122;28;20451;-63
2022/03/11 02:29:01;;;;;;;2.10;1.40;;;9.60;78.00;;;;;;5068978;28;20451;-62
2022/03/11 02:31:33;;;;;;;1.73;1.63;;;9.50;79.70;;;;;;5070603;28;20470;-62
2022/03/11 02:34:08;;;;;;;1.70;1.60;;;9.50;84.20;;;;;;5063134;28;20445;-63
2022/03/11 02:36:41;;;;;;;1.77;1.37;;;9.30;84.50;;;;;;5064896;28;20452;-61
2022/03/11 02:39:18;;;;;;;1.60;1.50;;;9.30;85.40;;;;;;5064137;28;20526;-61
2022/03/11 02:41:51;;;;;;;2.30;1.70;;;9.20;85.90;;;;;;5062859;28;20511;-62
2022/03/11 02:44:22;;;;;;;1.50;1.40;;;9.20;88.00;;;;;;5064295;28;20468;-62
2022/03/11 02:46:53;;;;;;;2.33;2.00;;;9.10;87.90;;;;;;5062494;28;20484;-61
2022/03/11 02:49:24;;;;;;;1.57;1.47;;;9.00;87.50;;;;;;5062572;28;20492;-63
2022/03/11 02:51:57;;;;;;;1.90;1.80;;;9.00;90.20;;;;;;5065854;28;20535;-61
2022/03/11 02:54:29;;;;;;;2.80;2.10;;;9.00;90.10;;;;;;5063397;28;20516;-62
2022/03/11 02:57:00;;;;;;;3.23;2.07;;;9.00;91.60;;;;;;5051323;28;20461;-62
2022/03/11 02:59:49;;;;;;;2.80;2.60;;;9.00;90.20;;;;;;5047580;28;20454;-62
2022/03/11 03:02:20;;;;;;;2.60;2.23;;;9.00;91.60;;;;;;5065860;28;20758;-63
2022/03/11 03:04:51;;;;;;;2.93;2.53;;;9.00;94.10;;;;;;5059715;28;20463;-62
2022/03/11 03:07:22;;;;;;;2.23;2.13;;;9.00;93.50;;;;;;5054209;28;20472;-63
2022/03/11 03:09:55;;;;;;;2.50;2.07;;;8.80;93.70;;;;;;5061623;28;20448;-63
2022/03/11 03:12:26;;;;;;;2.50;2.13;;;8.70;94.80;;;;;;5060557;28;21110;-63
2022/03/11 03:14:57;;;;;;;2.50;2.30;;;8.60;95.40;;;;;;5061040;28;20480;-63
2022/03/11 03:17:28;;;;;;;3.53;2.30;;;8.50;97.30;;;;;;5062017;28;20213;-63
2022/03/11 03:20:07;;;;;;;3.22;2.92;;;8.40;97.50;;;;;;5062705;28;20200;-63
2022/03/11 03:22:39;;;;;;;2.92;2.67;;;8.30;97.30;;;;;;5060645;28;20207;-63
2022/03/11 03:25:12;;;;;;;2.50;2.23;;;8.20;96.30;;;;;;5062098;28;20632;-64
2022/03/11 03:27:45;;;;;;;2.53;2.23;;;8.10;94.80;;;;;;5060788;28;20470;-63
2022/03/11 03:30:16;;;;;;;3.20;2.53;;;8.10;92.10;;;;;;5062175;28;20444;-64
2022/03/11 03:32:47;;;;;;;3.67;3.00;;;8.10;93.70;;;;;;5060486;28;20236;-64
2022/03/11 03:35:18;;;;;;;3.40;3.10;;;8.00;94.90;;;;;;5061738;28;20225;-63
2022/03/11 03:37:49;;;;;;;4.80;4.03;;;7.90;97.10;;;;;;5064749;28;20274;-64
2022/03/11 03:40:22;;;;;;;3.75;3.45;;;7.90;97.20;;;;;;5062074;28;20194;-63
2022/03/11 03:42:53;;;;;;;4.28;3.95;;;7.80;97.90;;;;;;5066532;28;20265;-63
2022/03/11 03:45:26;;;;;;;3.47;3.20;;;7.70;98.10;;;;;;5061033;28;20562;-63
2022/03/11 03:47:58;;;;;;;3.65;3.35;;;7.70;99.00;;;;;;5065655;28;20293;-63
2022/03/11 03:50:34;;;;;;;3.97;3.60;;;7.60;99.90;;;;;;5064713;28;20220;-63
2022/03/11 03:53:10;;;;;;;3.92;3.53;;;7.50;99.90;;;;;;5065728;28;20217;-66
2022/03/11 03:55:48;;;;;;;4.63;4.18;;;7.50;99.90;;;;;;5067846;28;20201;-65
2022/03/11 03:58:19;;;;;;;7.00;4.95;;;7.50;99.90;;;;;;5064441;28;20208;-64
2022/03/11 04:00:50;;;;;;;7.72;4.95;;;7.40;99.50;;;;;;5064522;28;20202;-64
2022/03/11 04:03:21;;;;;;;4.18;3.75;;;7.50;98.80;;;;;;5065425;28;20237;-62
2022/03/11 04:05:52;;;;;;;6.78;4.13;;;7.50;99.00;;;;;;5074580;28;20211;-63
2022/03/11 04:08:23;;;;;;;8.07;3.95;;;7.40;99.90;;;;;;5064906;28;20196;-62
2022/03/11 04:11:20;;;;;;;5.28;4.10;;;7.40;99.90;;;;;;5065860;28;20212;-62
2022/03/11 04:13:54;;;;;;;6.38;4.03;;;7.40;99.90;;;;;;5059738;28;20206;-65
2022/03/11 04:16:28;;;;;;;4.20;3.85;;;7.40;99.90;;;;;;5065179;28;20243;-72
2022/03/11 04:19:00;;;;;;;6.45;5.43;;;7.40;99.90;;;;;;5064513;28;20220;-62
2022/03/11 04:21:31;;;;;;;5.50;4.53;;;7.50;99.90;;;;;;5063110;28;20235;-62
2022/03/11 04:24:01;;;;;;;5.60;5.13;;;7.50;99.90;;;;;;5069418;28;20197;-62
2022/03/11 04:26:36;;;;;;;6.75;6.05;;;7.50;99.90;;;;;;5065223;28;20194;-62
2022/03/11 04:29:07;;;;;;;7.75;7.05;;;7.60;99.90;;;;;;5064062;28;20229;-62
2022/03/11 04:31:39;;;;;;;8.15;5.95;;;7.60;99.90;;;;;;5074052;28;20371;-63
2022/03/11 04:34:10;;;;;;;6.82;6.03;;;7.60;99.90;;;;;;5061298;28;20205;-65
2022/03/11 04:36:44;;;;;;;6.75;6.00;;;7.60;99.90;;;;;;5059996;28;20202;-67
2022/03/11 04:39:16;;;;;;;8.40;6.88;;;7.60;99.90;;;;;;5062558;28;20276;-66
2022/03/11 04:41:48;;;;;;;7.40;6.43;;;7.50;99.90;;;;;;5063847;28;20214;-63
2022/03/11 04:44:19;;;;;;;5.97;5.47;;;7.50;99.90;;;;;;5067995;28;20368;-69
2022/03/11 04:46:51;;;;;;;6.85;5.90;;;7.40;99.90;;;;;;5062239;28;20212;-67
2022/03/11 04:49:22;;;;;;;6.57;6.00;;;7.30;99.90;;;;;;5059108;28;20195;-65
2022/03/11 04:51:53;;;;;;;7.40;6.70;;;7.20;99.90;;;;;;5063175;28;20580;-63
2022/03/11 04:54:24;;;;;;;8.57;7.20;;;7.10;99.90;;;;;;5064177;28;20283;-66
2022/03/11 04:57:00;;;;;;;8.85;7.88;;;7.10;99.90;;;;;;5065654;28;20190;-67
2022/03/11 04:59:31;;;;;;;8.98;6.65;;;7.10;99.90;;;;;;5063422;28;20201;-67
2022/03/11 05:02:02;;;;;;;7.50;6.72;;;7.00;99.90;;;;;;5064027;28;20210;-67
2022/03/11 05:04:33;;;;;;;9.30;7.88;;;6.80;99.90;;;;;;5064801;28;20202;-67
2022/03/11 05:07:07;;;;;;;9.07;7.65;;;6.70;99.90;;;;;;5073637;28;20236;-66
2022/03/11 05:09:38;;;;;;;9.95;8.88;;;6.70;99.90;;;;;;5064730;28;20208;-66
2022/03/11 05:12:14;;;;;;;12.10;9.50;;;6.60;99.90;;;;;;5064695;28;20550;-67
2022/03/11 05:14:46;;;;;;;14.15;9.90;;;6.50;99.90;;;;;;5064400;28;20230;-66
2022/03/11 05:17:17;;;;;;;9.27;8.32;;;6.50;99.90;;;;;;5062052;28;20265;-66
2022/03/11 05:19:49;;;;;;;10.27;9.27;;;6.50;99.90;;;;;;5052280;28;20202;-68
2022/03/11 05:22:20;;;;;;;9.77;8.77;;;6.50;99.90;;;;;;5063441;28;20320;-68
2022/03/11 05:24:51;;;;;;;13.65;9.27;;;6.50;99.90;;;;;;5064364;28;20198;-66
2022/03/11 05:27:24;;;;;;;12.30;9.25;;;6.60;99.90;;;;;;5062818;28;20225;-64
2022/03/11 05:29:55;;;;;;;9.98;8.43;;;6.60;99.90;;;;;;5060899;28;20197;-65
2022/03/11 05:32:26;;;;;;;10.45;9.38;;;6.70;99.90;;;;;;5063390;28;20256;-62
2022/03/11 05:34:59;;;;;;;13.30;8.75;;;6.70;99.90;;;;;;5063713;28;20579;-63
2022/03/11 05:37:33;;;;;;;10.55;8.40;;;6.70;99.90;;;;;;5061603;28;20206;-63
2022/03/11 05:40:04;;;;;;;10.25;8.15;;;6.70;99.90;;;;;;5061304;28;20204;-62
2022/03/11 05:42:37;;;;;;;13.60;9.25;;;6.80;99.90;;;;;;5070788;28;20652;-63
2022/03/11 05:45:10;;;;;;;11.00;9.25;;;6.80;99.90;;;;;;5063549;28;20197;-64
2022/03/11 05:47:46;;;;;;;11.15;9.20;;;6.80;99.90;;;;;;5062839;28;21371;-63
2022/03/11 05:50:18;;;;;;;10.40;8.10;;;6.80;99.90;;;;;;5063685;28;20236;-63
2022/03/11 05:52:50;;;;;;;9.68;7.82;;;6.90;99.90;;;;;;5062179;28;20241;-63
2022/03/11 05:55:21;;;;;;;9.70;8.13;;;6.90;99.90;;;;;;5066266;28;20266;-65
2022/03/11 05:57:56;;;;;;;8.85;7.90;;;6.90;99.90;;;;;;5066744;28;20205;-64
2022/03/11 06:00:27;;;;;;;9.10;7.72;;;6.90;99.90;;;;;;5064973;28;20281;-64
2022/03/11 06:02:59;;;;;;;8.38;7.55;;;6.80;99.90;;;;;;5061878;28;20212;-64
2022/03/11 06:05:30;;;;;;;7.93;7.13;;;6.80;99.90;;;;;;5062231;28;20209;-64
2022/03/11 06:08:01;;;;;;;9.75;7.60;;;6.70;99.90;;;;;;5070108;28;20202;-64
2022/03/11 06:10:31;;;;;;;10.73;8.55;;;6.60;99.90;;;;;;5063716;28;20206;-64
2022/03/11 06:13:04;;;;;;;10.43;9.43;;;6.70;99.90;;;;;;5063605;28;20234;-64
2022/03/11 06:15:38;;;;;;;10.45;8.50;;;6.70;99.90;;;;;;5053760;28;20229;-64
2022/03/11 06:18:09;;;;;;;10.50;9.40;;;6.80;99.90;;;;;;5071699;28;20215;-64
2022/03/11 06:20:41;;;;;;;11.82;9.63;;;6.80;99.90;;;;;;5077706;28;20241;-64
2022/03/11 06:23:12;;;;;;;10.90;9.60;;;6.80;99.90;;;;;;5074255;28;20202;-64
2022/03/11 06:25:43;;;;;;;10.80;9.32;;;6.80;99.90;;;;;;5073654;28;20192;-64
2022/03/11 06:28:16;;;;;;;11.75;10.27;;;6.80;99.90;;;;;;5062615;28;20268;-64
2022/03/11 06:30:47;;;;;;;11.10;9.90;;;6.80;99.90;;;;;;5072155;28;20571;-64
2022/03/11 06:33:22;;;;;;;10.05;8.95;;;6.80;99.90;;;;;;5064691;28;20396;-64
2022/03/11 06:35:53;;;;;;;10.32;9.25;;;6.80;99.90;;;;;;5070502;28;20203;-64
2022/03/11 06:38:24;;;;;;;10.70;9.63;;;6.70;99.90;;;;;;5067403;28;20592;-64
2022/03/11 06:40:56;;;;;;;11.35;9.45;;;6.60;99.90;;;;;;5063555;28;20186;-62
2022/03/11 06:43:28;;;;;;;9.93;8.90;;;6.60;99.90;;;;;;5071944;28;20220;-63
2022/03/11 06:45:59;;;;;;;9.75;8.75;;;6.60;99.90;;;;;;5062170;28;20218;-64
2022/03/11 06:48:31;;;;;;;11.40;9.18;;;6.60;99.90;;;;;;5065247;28;20221;-62
2022/03/11 06:51:04;;;;;;;9.95;8.95;;;6.60;99.90;;;;;;5070351;28;20208;-62
2022/03/11 06:53:36;;;;;;;10.30;9.20;;;6.60;99.90;;;;;;5062184;28;20669;-62
2022/03/11 06:56:07;;;;;;;9.90;8.90;;;6.60;99.90;;;;;;5062461;28;20186;-63
2022/03/11 06:58:40;;;;;;;10.38;9.27;;;6.60;99.90;;;;;;5054858;28;20272;-62
2022/03/11 07:01:11;;;;;;;11.77;8.80;;;6.50;99.90;;;;;;5063653;28;20225;-62
2022/03/11 07:03:43;;;;;;;11.18;9.57;;;6.60;99.90;;;;;;5062649;28;20281;-62
2022/03/11 07:06:14;;;;;;;9.63;8.63;;;6.60;99.90;;;;;;5062720;28;20297;-62
2022/03/11 07:08:45;;;;;;;11.45;9.45;;;6.50;99.90;;;;;;5061401;28;20212;-62
2022/03/11 07:11:16;;;;;;;10.98;9.95;;;6.60;99.90;;;;;;5068838;28;20265;-63
2022/03/11 07:13:49;;;;;;;10.82;9.73;;;6.60;99.90;;;;;;5072890;28;20217;-63
2022/03/11 07:16:20;;;;;;;12.07;10.93;;;6.50;99.90;;;;;;5065714;28;20231;-62
2022/03/11 07:18:51;;;;;;;12.57;10.15;;;6.50;99.90;;;;;;5049932;28;20224;-62
2022/03/11 07:21:23;;;;;;;10.55;9.38;;;6.40;99.90;;;;;;5066698;28;20193;-63
2022/03/11 07:23:56;;;;;;;13.52;10.77;;;6.40;99.90;;;;;;5070262;28;20307;-63
2022/03/11 07:26:26;;;;;;;10.77;9.65;;;6.20;99.90;;;;;;5079133;28;20217;-63
2022/03/11 07:28:59;;;;;;;11.73;10.02;;;6.20;99.90;;;;;;5069632;28;20673;-63
2022/03/11 07:31:35;;;;;;;10.00;8.63;;;6.10;99.90;;;;;;5066875;28;20301;-63
2022/03/11 07:34:06;;;;;;;9.70;8.70;;;6.10;99.90;;;;;;5066940;28;20225;-64
2022/03/11 07:36:37;;;;;;;10.13;9.00;;;6.00;99.90;;;;;;5073261;28;20201;-63
2022/03/11 07:39:09;;;;;;;8.65;7.85;;;5.90;99.90;;;;;;5083313;28;20201;-63
2022/03/11 07:41:40;;;;;;;11.10;9.70;;;5.80;99.90;;;;;;5070981;28;20547;-63
2022/03/11 07:44:13;;;;;;;9.40;8.40;;;5.70;99.90;;;;;;5063100;28;20187;-63
2022/03/11 07:46:51;;;;;;;10.80;9.60;;;5.60;99.90;;;;;;5066335;28;20364;-63
2022/03/11 07:49:23;;;;;;;12.30;9.40;;;5.60;99.90;;;;;;5065303;28;20277;-62
2022/03/11 07:51:57;;;;;;;11.20;10.10;;;5.50;99.90;;;;;;5065609;28;20206;-63
2022/03/11 07:54:28;;;;;;;11.85;10.30;;;5.40;99.90;;;;;;5068704;28;20210;-63
2022/03/11 07:56:59;;;;;;;11.75;10.10;;;5.40;99.90;;;;;;5080139;28;20225;-63
2022/03/11 07:59:33;;;;;;;15.88;11.02;;;5.40;99.90;;;;;;5065965;28;20290;-63
2022/03/11 08:02:04;;;;;;;12.25;11.15;;;5.30;99.90;;;;;;5068123;28;20202;-62
2022/03/11 08:04:35;;;;;;;10.98;9.88;;;5.30;99.90;;;;;;5066078;28;20202;-63
2022/03/11 08:07:10;;;;;;;12.05;10.68;;;5.20;99.90;;;;;;5070783;28;20279;-63
2022/03/11 08:09:42;;;;;;;11.00;9.90;;;5.10;99.90;;;;;;5065294;28;20267;-63
2022/03/11 08:12:13;;;;;;;12.68;11.05;;;5.10;99.90;;;;;;5068357;28;20229;-63
2022/03/11 08:14:46;;;;;;;13.88;11.05;;;5.00;99.90;;;;;;5065825;28;20229;-63
2022/03/11 08:17:17;;;;;;;11.77;10.50;;;4.90;99.90;;;;;;5069804;28;20245;-63
2022/03/11 08:19:48;;;;;;;13.27;11.88;;;4.80;99.90;;;;;;5065230;28;20775;-63
2022/03/11 08:22:19;;;;;;;13.68;10.82;;;4.70;99.90;;;;;;5065185;28;20217;-63
2022/03/11 08:24:51;;;;;;;11.45;10.35;;;4.70;99.90;;;;;;5074070;28;20278;-63
2022/03/11 08:27:22;;;;;;;11.85;10.60;;;4.70;99.90;;;;;;5063456;28;20198;-63
2022/03/11 08:29:54;;;;;;;16.27;10.70;;;4.60;99.90;;;;;;5068799;28;20229;-62
2022/03/11 08:32:30;;;;;;;10.48;9.00;;;4.60;99.90;;;;;;5067929;28;20211;-62
2022/03/11 08:35:02;;;;;;;11.55;9.70;;;4.60;99.90;;;;;;5067028;28;20237;-63
2022/03/11 08:37:39;;;;;;;11.23;10.00;;;4.60;99.90;;;;;;5073243;28;20209;-63
2022/03/11 08:40:13;;;;;;;12.57;10.13;;;4.50;99.90;;;;;;5065185;28;20202;-63
2022/03/11 08:42:44;;;;;;;12.77;9.13;;;4.50;99.90;;;;;;5069672;28;20189;-63
2022/03/11 08:45:17;;;;;;;12.77;10.63;;;4.60;99.90;;;;;;5074591;28;20630;-63
2022/03/11 08:47:48;;;;;;;13.70;9.68;;;4.60;99.90;;;;;;5064979;28;20209;-63
2022/03/11 08:50:19;;;;;;;11.13;9.40;;;4.60;99.90;;;;;;5063432;28;20206;-63
2022/03/11 08:52:50;;;;;;;11.90;9.15;;;4.50;99.90;;;;;;5067518;28;20258;-63
2022/03/11 08:55:21;;;;;;;13.80;9.48;;;4.50;99.90;;;;;;5068586;28;20281;-63
2022/03/11 08:57:52;;;;;;;10.45;9.45;;;4.40;99.90;;;;;;5065183;28;20186;-63
2022/03/11 09:00:26;;;;;;;10.73;9.25;;;4.50;99.90;;;;;;5065792;28;20198;-62
2022/03/11 09:02:57;;;;;;;9.90;8.85;;;4.50;99.90;;;;;;5064254;28;20201;-62
2022/03/11 09:05:32;;;;;;;10.85;8.88;;;4.40;99.90;;;;;;5068132;28;20193;-62
2022/03/11 09:08:03;;;;;;;9.88;8.88;;;4.40;99.90;;;;;;5063622;28;20206;-62
2022/03/11 09:10:33;;;;;;;11.65;9.45;;;4.40;99.90;;;;;;5064439;28;20202;-63
2022/03/11 09:13:05;;;;;;;9.57;8.65;;;4.30;99.90;;;;;;5063106;28;20276;-62
2022/03/11 09:15:38;;;;;;;10.43;9.45;;;4.20;99.90;;;;;;5064785;28;20571;-63
2022/03/11 09:18:12;;;;;;;12.05;9.68;;;4.20;99.90;;;;;;5063382;28;20197;-62
2022/03/11 09:20:43;;;;;;;9.43;8.52;;;4.20;99.90;;;;;;5066540;28;20202;-62
2022/03/11 09:23:14;;;;;;;10.60;9.52;;;4.20;99.90;;;;;;5064733;28;20213;-63
2022/03/11 09:25:44;;;;;;;10.88;9.30;;;4.10;99.90;;;;;;5064474;28;20198;-63
2022/03/11 09:28:17;;;;;;;13.00;10.30;;;4.00;99.90;;;;;;5069081;28;20203;-63
2022/03/11 09:30:49;;;;;;;9.80;8.25;;;4.00;99.90;;;;;;5057470;28;20190;-63
2022/03/11 09:33:20;;;;;;;10.45;9.38;;;3.90;99.90;;;;;;5063958;28;20202;-63
2022/03/11 09:35:51;;;;;;;10.05;8.95;;;3.90;99.90;;;;;;5064378;28;20222;-62
2022/03/11 09:38:22;;;;;;;9.35;8.07;;;3.90;99.90;;;;;;5070817;28;20221;-62
2022/03/11 09:40:54;;;;;;;13.10;10.05;;;4.00;99.90;;;;;;5063694;28;20218;-62
2022/03/11 09:43:27;;;;;;;12.13;9.98;;;3.80;99.90;;;;;;5062893;28;20535;-62
2022/03/11 09:46:01;;;;;;;9.82;8.85;;;3.80;99.90;;;;;;5064422;28;20276;-63
2022/03/11 09:48:38;;;;;;;9.57;8.60;;;3.80;99.90;;;;;;5065501;28;20311;-62
2022/03/11 09:51:11;;;;;;;10.95;9.40;;;3.80;99.90;;;;;;5064224;28;20198;-62
2022/03/11 09:53:44;;;;;;;11.95;9.57;;;3.70;99.90;;;;;;5070971;28;20193;-62
2022/03/11 09:56:15;;;;;;;10.18;9.10;;;3.70;99.90;;;;;;5073790;28;20282;-63
2022/03/11 09:58:46;;;;;;;10.25;9.00;;;3.70;99.90;;;;;;5063815;28;20212;-62
2022/03/11 10:01:18;;;;;;;11.27;9.07;;;3.60;99.90;;;;;;5076173;28;20634;-62
2022/03/11 10:03:50;;;;;;;10.65;9.38;;;3.60;99.90;;;;;;5063548;28;20202;-62
2022/03/11 10:06:39;;;;;;;9.95;8.95;;;3.60;99.90;;;;;;5067144;28;20217;-62
2022/03/11 10:09:36;;;;;;;9.50;8.52;;;3.50;99.90;;;;;;5071464;28;20198;-62
2022/03/11 10:12:08;;;;;;;11.65;9.40;;;3.40;99.90;;;;;;5061309;28;20212;-63
2022/03/11 10:14:39;;;;;;;9.80;8.48;;;3.40;99.90;;;;;;5066541;28;20216;-62
2022/03/11 10:17:23;;;;;;;12.02;10.07;;;3.40;99.90;;;;;;5057480;28;20261;-62
2022/03/11 10:19:56;;;;;;;9.73;8.73;;;3.30;99.90;;;;;;5063152;28;20719;-62
2022/03/11 10:22:27;;;;;;;10.90;9.80;;;3.30;99.90;;;;;;5063381;28;20202;-62
2022/03/11 10:25:16;;;;;;;15.80;8.70;;;3.30;99.90;;;;;;5063013;28;20204;-62
2022/03/11 10:27:58;;;;;;;9.10;8.20;;;3.30;99.90;;;;;;5067206;28;20197;-62
2022/03/11 10:30:29;;;;;;;11.30;10.10;;;3.30;99.90;;;;;;5068953;28;20296;-63
2022/03/11 10:33:07;;;;;;;13.80;9.10;;;3.30;99.90;;;;;;5063614;28;20205;-62
2022/03/11 10:35:39;;;;;;;11.70;8.70;;;3.20;99.90;;;;;;5063429;28;20225;-62
2022/03/11 10:38:11;;;;;;;9.65;8.40;;;3.10;99.90;;;;;;5069602;28;20198;-62
2022/03/11 10:40:50;;;;;;;10.60;8.50;;;3.10;99.90;;;;;;5064768;28;20505;-62
2022/03/11 10:43:22;;;;;;;12.43;8.35;;;3.10;99.90;;;;;;5061937;28;20278;-62
2022/03/11 10:45:55;;;;;;;12.40;8.25;;;3.20;99.90;;;;;;5062406;28;20232;-62
2022/03/11 10:48:47;;;;;;;9.95;7.93;;;3.10;99.90;;;;;;5074347;28;20280;-62
2022/03/11 10:51:28;;;;;;;10.27;8.10;;;3.10;99.90;;;;;;5062395;28;20203;-62
2022/03/11 10:54:00;;;;;;;9.48;8.18;;;3.20;99.90;;;;;;5051385;28;20245;-62
2022/03/11 10:56:34;;;;;;;10.82;8.57;;;3.20;99.90;;;;;;5067465;28;20221;-62
2022/03/11 10:59:15;;;;;;;10.23;8.40;;;3.20;99.90;;;;;;5061936;28;20199;-62
2022/03/11 11:01:47;;;;;;;8.98;7.50;;;3.30;99.90;;;;;;5049862;28;20213;-62
2022/03/11 11:04:22;;;;;;;8.95;7.45;;;3.40;99.90;;;;;;5062530;28;20206;-62
2022/03/11 11:06:54;;;;;;;14.07;8.63;;;3.30;99.90;;;;;;5078793;28;20215;-62
2022/03/11 11:09:28;;;;;;;9.75;8.75;;;3.30;99.90;;;;;;5067384;28;20530;-62
2022/03/11 11:11:59;;;;;;;11.95;8.82;;;3.30;99.90;;;;;;5064864;28;20189;-62
2022/03/11 11:14:30;;;;;;;10.05;8.20;;;3.30;99.90;;;;;;5068069;28;20193;-62
2022/03/11 11:17:05;;;;;;;10.93;9.30;;;3.20;99.90;;;;;;5066039;28;20311;-62
2022/03/11 11:19:44;;;;;;;9.15;8.25;;;3.10;99.90;;;;;;5066389;28;20209;-62
2022/03/11 11:22:16;;;;;;;11.00;9.80;;;3.00;99.90;;;;;;5061824;28;20196;-62
2022/03/11 11:24:53;;;;;;;10.25;8.68;;;2.90;99.90;;;;;;5063886;28;20201;-62
2022/03/11 11:27:25;;;;;;;11.43;9.30;;;3.00;99.90;;;;;;5062459;28;20203;-62
2022/03/11 11:29:57;;;;;;;9.50;8.10;;;3.00;99.90;;;;;;5074339;28;20630;-62
2022/03/11 11:32:28;;;;;;;10.90;7.63;;;2.90;99.90;;;;;;5058662;28;20226;-62
2022/03/11 11:35:28;;;;;;;9.25;7.75;;;2.90;99.90;;;;;;5062644;28;20201;-62
2022/03/11 11:38:03;;;;;;;10.05;7.68;;;2.80;99.90;;;;;;5053951;28;20213;-62
2022/03/11 11:40:37;;;;;;;9.45;8.30;;;2.90;99.90;;;;;;5063179;28;20212;-62
2022/03/11 11:43:29;;;;;;;9.40;7.72;;;2.80;99.90;;;;;;5060097;28;20263;-62
2022/03/11 11:46:07;;;;;;;12.43;8.68;;;2.80;99.90;;;;;;5063707;28;20210;-62
2022/03/11 11:49:07;;;;;;;9.80;8.48;;;2.80;99.90;;;;;;5062783;28;20212;-62
2022/03/11 11:52:04;;;;;;;9.75;7.95;;;2.70;99.90;;;;;;5054310;28;20197;-62
2022/03/11 11:54:39;;;;;;;12.75;8.25;;;2.70;99.90;;;;;;5067260;28;20224;-62
2022/03/11 11:57:27;;;;;;;11.65;8.68;;;2.70;99.90;;;;;;5075575;28;20233;-62
2022/03/11 11:59:59;;;;;;;11.48;8.45;;;2.70;99.90;;;;;;5062802;28;20289;-62
2022/03/11 12:02:37;;;;;;;9.57;8.48;;;2.70;99.90;;;;;;5064050;28;20316;-62
2022/03/11 12:05:45;;;;;;;8.27;6.72;;;2.70;99.90;;;;;;5066333;28;20201;-62
2022/03/11 12:08:50;;;;;;;10.40;8.02;;;2.70;99.90;;;;;;5023202;28;20284;-62
2022/03/11 12:11:42;;;;;;;10.52;7.70;;;2.60;99.90;;;;;;5019260;28;20203;-62
2022/03/11 12:14:13;;;;;;;10.48;8.25;;;2.60;99.90;;;;;;5009894;28;20269;-62
2022/03/11 12:17:05;;;;;;;9.75;8.20;;;2.70;99.90;;;;;;5023183;28;20298;-62
2022/03/11 12:19:45;;;;;;;12.18;8.18;;;2.70;99.90;;;;;;5023520;28;20230;-62
2022/03/11 12:22:34;;;;;;;11.15;8.48;;;2.70;99.90;;;;;;5023545;28;20317;-62
2022/03/11 12:25:13;;;;;;;8.60;7.53;;;2.60;99.90;;;;;;5022606;28;20657;-62
2022/03/11 12:28:08;;;;;;;9.18;7.70;;;2.60;99.90;;;;;;5010896;28;20195;-62
2022/03/11 12:30:42;;;;;;;10.57;7.93;;;2.50;99.90;;;;;;5023056;28;20278;-62
2022/03/11 12:33:15;;;;;;;9.82;8.20;;;2.50;99.90;;;;;;5022534;28;20203;-62
2022/03/11 12:35:48;;;;;;;8.38;7.47;;;2.40;99.90;;;;;;5023106;28;20251;-62
2022/03/11 12:38:21;;;;;;;9.80;8.25;;;2.40;99.90;;;;;;5029394;28;20210;-62
2022/03/11 12:40:54;;;;;;;9.57;7.80;;;2.30;99.90;;;;;;5066191;28;20199;-62
2022/03/11 12:43:28;;;;;;;11.23;8.20;;;2.30;99.90;;;;;;5063742;28;20599;-62
2022/03/11 12:45:59;;;;;;;11.07;7.25;;;2.30;99.90;;;;;;5065601;28;20186;-62
2022/03/11 12:48:33;;;;;;;10.52;8.05;;;2.30;99.90;;;;;;5064711;28;20186;-62
2022/03/11 12:51:05;;;;;;;9.38;7.63;;;2.20;99.90;;;;;;5065047;28;20547;-62
2022/03/11 12:53:38;;;;;;;10.43;8.20;;;2.10;99.90;;;;;;5060669;28;20769;-62
2022/03/11 12:56:11;;;;;;;13.15;9.10;;;2.10;99.90;;;;;;5075689;28;20221;-62
2022/03/11 12:58:42;;;;;;;8.48;7.55;;;2.10;99.90;;;;;;5063531;28;20216;-62
2022/03/11 13:01:14;;;;;;;9.38;8.27;;;1.90;99.90;;;;;;5065393;28;20560;-62
2022/03/11 13:03:50;;;;;;;9.35;8.35;;;2.00;99.90;;;;;;5064677;28;20285;-62
2022/03/11 13:06:21;;;;;;;8.73;7.90;;;2.20;99.90;;;;;;5073034;28;20216;-62
2022/03/11 13:08:52;;;;;;;11.80;9.07;;;2.20;99.90;;;;;;5071102;28;20216;-62
2022/03/11 13:11:25;;;;;;;9.45;8.00;;;2.20;99.90;;;;;;5064885;28;20550;-62
2022/03/11 13:14:04;;;;;;;10.90;7.95;;;2.20;99.90;;;;;;5062956;28;20194;-62
2022/03/11 13:16:35;;;;;;;11.13;9.60;;;2.10;99.90;;;;;;5064778;28;20261;-62
2022/03/11 13:19:09;;;;;;;9.32;8.35;;;2.10;99.90;;;;;;5064330;28;20197;-62
2022/03/11 13:21:43;;;;;;;10.73;8.30;;;2.10;99.90;;;;;;5064654;28;20666;-61
2022/03/11 13:24:13;;;;;;;10.18;8.57;;;2.10;99.90;;;;;;5077599;28;20210;-62